Time;durP1;ratioP1;P1;durP2;ratioP2;P2;SDS_P1;SDS_P2;PMS_P1;PMS_P2;Temp;Humidity;BMP_temperature;BMP_pressure;BME280_temperature;BME280_humidity;BME280_pressure;Samples;Min_cycle;Max_cycle;Signal;HPM_P1;HPM_P2
2022/08/26 00:00:12;;;;;;;9.67;8.83;;;19.70;99.90;;;;;;4851678;29;20960;-87
2022/08/26 00:02:38;;;;;;;9.03;8.10;;;19.60;99.90;;;;;;4830068;29;20454;-87
2022/08/26 00:05:08;;;;;;;9.20;8.37;;;19.40;99.90;;;;;;4843361;29;20186;-87
2022/08/26 00:07:34;;;;;;;9.27;8.57;;;19.30;99.90;;;;;;4830255;29;20478;-87
2022/08/26 00:09:59;;;;;;;10.60;9.70;;;19.30;99.90;;;;;;4863953;29;20523;-87
2022/08/26 00:12:25;;;;;;;11.40;10.50;;;19.30;99.90;;;;;;4824240;29;20205;-87
2022/08/26 00:14:50;;;;;;;9.80;8.90;;;19.30;99.90;;;;;;4855298;29;20190;-87
2022/08/26 00:17:17;;;;;;;9.73;8.93;;;19.20;99.90;;;;;;4834273;29;22632;-86
2022/08/26 00:19:43;;;;;;;8.77;7.97;;;19.20;99.90;;;;;;4845149;29;21434;-86
2022/08/26 00:22:09;;;;;;;8.50;7.80;;;19.10;99.90;;;;;;4839335;29;21061;-86
2022/08/26 00:24:34;;;;;;;8.17;7.57;;;19.10;99.90;;;;;;4848457;29;20190;-86
2022/08/26 00:27:00;;;;;;;8.13;7.43;;;19.00;99.90;;;;;;4846270;29;20458;-86
2022/08/26 00:29:25;;;;;;;8.23;7.30;;;18.90;99.90;;;;;;4826357;29;20576;-87
2022/08/26 00:31:51;;;;;;;8.20;7.50;;;18.90;99.90;;;;;;4862350;29;20201;-87
2022/08/26 00:34:17;;;;;;;7.97;7.40;;;18.90;99.90;;;;;;4859961;29;20191;-86
2022/08/26 00:36:42;;;;;;;9.07;8.17;;;18.90;99.90;;;;;;4868353;29;20278;-86
2022/08/26 00:39:08;;;;;;;8.70;8.03;;;18.90;99.90;;;;;;4845283;29;20190;-87
2022/08/26 00:41:36;;;;;;;8.43;7.80;;;18.90;99.90;;;;;;4858122;29;20644;-87
2022/08/26 00:44:02;;;;;;;8.60;7.90;;;18.80;99.90;;;;;;4842284;29;20183;-87
2022/08/26 00:46:32;;;;;;;8.00;7.30;;;18.50;99.90;;;;;;4845974;29;20473;-87
2022/08/26 00:49:16;;;;;;;8.57;7.97;;;18.50;99.90;;;;;;4863846;29;20186;-86
2022/08/26 00:51:48;;;;;;;8.07;7.37;;;18.60;99.90;;;;;;4854262;29;20477;-86
2022/08/26 00:54:15;;;;;;;8.30;7.70;;;18.50;99.90;;;;;;4827200;29;20462;-86
2022/08/26 00:57:08;;;;;;;8.23;7.40;;;18.40;99.90;;;;;;4845673;29;20550;-86
2022/08/26 00:59:34;;;;;;;9.00;8.20;;;18.50;99.90;;;;;;4847861;29;20442;-86
2022/08/26 01:02:01;;;;;;;7.70;7.10;;;18.40;99.90;;;;;;4848238;29;20531;-86
2022/08/26 01:04:27;;;;;;;8.80;8.10;;;18.50;99.90;;;;;;4829196;29;20501;-86
2022/08/26 01:06:53;;;;;;;8.60;7.80;;;18.40;99.90;;;;;;4859256;29;20478;-86
2022/08/26 01:09:21;;;;;;;7.73;7.03;;;18.50;99.90;;;;;;4844945;29;20494;-86
2022/08/26 01:11:49;;;;;;;8.30;7.60;;;18.50;99.90;;;;;;4846669;29;20197;-86
2022/08/26 01:14:17;;;;;;;7.83;7.13;;;18.50;99.90;;;;;;4824450;29;20450;-86
2022/08/26 01:16:46;;;;;;;7.17;6.67;;;18.60;99.90;;;;;;4858639;29;20573;-86
2022/08/26 01:19:21;;;;;;;7.77;6.90;;;18.60;99.90;;;;;;4832014;29;20582;-86
2022/08/26 01:21:53;;;;;;;8.10;7.47;;;18.60;99.90;;;;;;4825209;29;20537;-86
2022/08/26 01:24:19;;;;;;;8.67;7.97;;;18.50;99.90;;;;;;4832001;29;20435;-86
2022/08/26 01:26:44;;;;;;;8.43;7.70;;;18.50;99.90;;;;;;4844218;29;20455;-86
2022/08/26 01:29:15;;;;;;;7.40;6.90;;;18.40;99.90;;;;;;4828683;29;20646;-87
2022/08/26 01:31:48;;;;;;;8.13;7.33;;;18.30;99.90;;;;;;4835034;29;20206;-86
2022/08/26 01:34:16;;;;;;;8.00;7.40;;;18.40;99.90;;;;;;4843826;29;20531;-86
2022/08/26 01:36:43;;;;;;;8.10;7.40;;;18.40;99.90;;;;;;4845764;29;20994;-87
2022/08/26 01:39:12;;;;;;;7.37;6.87;;;18.40;99.90;;;;;;4841810;29;20501;-86
2022/08/26 01:41:39;;;;;;;8.07;7.37;;;18.50;99.90;;;;;;4847525;29;20499;-86
2022/08/26 01:44:10;;;;;;;7.53;7.00;;;18.60;99.90;;;;;;4843886;29;20848;-86
2022/08/26 01:46:38;;;;;;;8.50;7.90;;;18.60;99.90;;;;;;4845493;29;20509;-86
2022/08/26 01:49:06;;;;;;;8.10;7.40;;;18.60;99.90;;;;;;4826133;29;20459;-86
2022/08/26 01:51:35;;;;;;;8.00;7.30;;;18.70;99.90;;;;;;4844674;29;20507;-86
2022/08/26 01:54:02;;;;;;;7.93;7.33;;;18.70;99.90;;;;;;4839894;29;20470;-86
2022/08/26 01:56:28;;;;;;;8.40;7.70;;;18.70;99.90;;;;;;4821729;29;21017;-86
2022/08/26 01:58:56;;;;;;;8.40;7.63;;;18.60;99.90;;;;;;4842454;29;20484;-86
2022/08/26 02:01:24;;;;;;;8.27;7.67;;;18.60;99.90;;;;;;4839960;29;20198;-86
2022/08/26 02:04:20;;;;;;;8.60;7.90;;;18.50;99.90;;;;;;4860596;29;20721;-87
2022/08/26 02:06:47;;;;;;;8.47;7.77;;;18.60;99.90;;;;;;4827935;29;20516;-86
2022/08/26 02:09:13;;;;;;;8.13;7.43;;;18.60;99.90;;;;;;4847067;29;20450;-85
2022/08/26 02:11:39;;;;;;;8.87;8.20;;;18.70;99.90;;;;;;4828649;29;20961;-86
2022/08/26 02:14:12;;;;;;;7.67;7.17;;;18.70;99.90;;;;;;4858196;29;20443;-86
2022/08/26 02:16:41;;;;;;;8.13;7.53;;;18.60;99.90;;;;;;4825904;29;20214;-86
2022/08/26 02:19:13;;;;;;;8.37;7.67;;;18.60;99.90;;;;;;4843902;29;20499;-85
2022/08/26 02:21:40;;;;;;;8.47;7.77;;;18.60;99.90;;;;;;4818606;29;20451;-85
2022/08/26 02:24:11;;;;;;;9.00;8.27;;;18.50;99.90;;;;;;4841050;29;21045;-85
2022/08/26 02:26:40;;;;;;;8.63;7.87;;;18.50;99.90;;;;;;4839223;29;20458;-86
2022/08/26 02:29:22;;;;;;;8.40;7.70;;;18.50;99.90;;;;;;4841435;29;20471;-86
2022/08/26 02:31:48;;;;;;;8.70;8.10;;;18.50;99.90;;;;;;4846242;29;20451;-86
2022/08/26 02:34:18;;;;;;;8.03;7.43;;;18.60;99.90;;;;;;4839362;29;20726;-87
2022/08/26 02:36:44;;;;;;;8.50;7.80;;;18.50;99.90;;;;;;4837507;29;20490;-87
2022/08/26 02:39:10;;;;;;;8.43;7.77;;;18.40;99.90;;;;;;4837730;29;20536;-86
2022/08/26 02:41:37;;;;;;;8.10;7.40;;;18.40;99.90;;;;;;4825955;29;20205;-86
2022/08/26 02:44:03;;;;;;;8.80;8.10;;;18.30;99.90;;;;;;4841430;29;20447;-86
2022/08/26 02:46:30;;;;;;;9.40;8.70;;;18.30;99.90;;;;;;4846677;29;20470;-86
2022/08/26 02:48:56;;;;;;;8.63;8.00;;;18.20;99.90;;;;;;4842144;29;20455;-86
2022/08/26 02:51:24;;;;;;;9.17;8.27;;;18.20;99.90;;;;;;4848062;29;20457;-86
2022/08/26 02:53:50;;;;;;;8.73;8.10;;;18.10;99.90;;;;;;4845766;29;20447;-86
2022/08/26 02:56:18;;;;;;;8.87;8.17;;;18.00;99.90;;;;;;4858224;29;20522;-86
2022/08/26 02:58:43;;;;;;;8.60;7.90;;;18.00;99.90;;;;;;4826804;29;20199;-87
2022/08/26 03:01:28;;;;;;;8.63;8.03;;;17.90;99.90;;;;;;4845225;29;20487;-86
2022/08/26 03:03:55;;;;;;;8.57;7.97;;;18.00;99.90;;;;;;4844823;29;20247;-86
2022/08/26 03:06:21;;;;;;;9.43;8.50;;;18.10;99.90;;;;;;4846361;29;20447;-85
2022/08/26 03:08:47;;;;;;;9.23;8.40;;;18.20;99.90;;;;;;4845465;29;21034;-86
2022/08/26 03:11:13;;;;;;;9.10;8.30;;;18.10;99.90;;;;;;4836796;29;20278;-86
2022/08/26 03:13:39;;;;;;;8.47;7.77;;;18.10;99.90;;;;;;4820009;29;20463;-86
2022/08/26 03:16:06;;;;;;;8.47;7.87;;;18.10;99.90;;;;;;4844938;29;21213;-87
2022/08/26 03:18:31;;;;;;;9.37;8.50;;;18.10;99.90;;;;;;4839331;29;20490;-86
2022/08/26 03:20:58;;;;;;;9.60;8.80;;;18.20;99.90;;;;;;4850913;29;20950;-86
2022/08/26 03:23:24;;;;;;;9.03;8.33;;;18.10;99.90;;;;;;4848228;29;20194;-86
2022/08/26 03:25:52;;;;;;;8.87;8.17;;;18.10;99.90;;;;;;4858679;29;20446;-86
2022/08/26 03:28:20;;;;;;;9.60;8.60;;;18.10;99.90;;;;;;4839823;29;20454;-86
2022/08/26 03:30:46;;;;;;;9.20;8.40;;;18.20;99.90;;;;;;4840053;29;20469;-86
2022/08/26 03:33:13;;;;;;;9.00;8.17;;;18.10;99.90;;;;;;4847148;29;20478;-86
2022/08/26 03:35:41;;;;;;;9.13;8.43;;;18.10;99.90;;;;;;4846403;29;20451;-86
2022/08/26 03:38:07;;;;;;;9.23;8.43;;;18.00;99.90;;;;;;4862613;29;20546;-86
2022/08/26 03:40:35;;;;;;;9.83;8.60;;;17.80;99.90;;;;;;4829180;29;20442;-87
2022/08/26 03:43:02;;;;;;;9.47;8.67;;;17.80;99.90;;;;;;4857487;29;20570;-86
2022/08/26 03:45:28;;;;;;;8.97;8.27;;;17.80;99.90;;;;;;4835839;29;20459;-86
2022/08/26 03:47:54;;;;;;;9.23;8.37;;;17.90;99.90;;;;;;4864072;29;20818;-86
2022/08/26 03:50:21;;;;;;;9.33;8.53;;;17.90;99.90;;;;;;4846152;29;20288;-86
2022/08/26 03:52:47;;;;;;;8.87;8.17;;;17.90;99.90;;;;;;4830454;29;20191;-86
2022/08/26 03:55:13;;;;;;;9.40;8.60;;;17.80;99.90;;;;;;4858891;29;20465;-87
2022/08/26 03:57:39;;;;;;;9.40;8.60;;;17.70;99.90;;;;;;4840086;29;20534;-86
2022/08/26 04:00:11;;;;;;;12.93;9.70;;;17.60;99.90;;;;;;4846193;29;20961;-87
2022/08/26 04:02:36;;;;;;;10.10;9.30;;;17.50;99.90;;;;;;4840325;29;20202;-87
2022/08/26 04:05:03;;;;;;;9.70;9.00;;;17.50;99.90;;;;;;4848879;29;20537;-87
2022/08/26 04:07:29;;;;;;;10.00;9.10;;;17.60;99.90;;;;;;4846804;29;20218;-87
2022/08/26 04:09:56;;;;;;;11.33;9.77;;;17.60;99.90;;;;;;4848344;29;20473;-87
2022/08/26 04:12:23;;;;;;;10.10;9.20;;;17.50;99.90;;;;;;4858032;29;20190;-87
2022/08/26 04:14:49;;;;;;;10.70;9.80;;;17.50;99.90;;;;;;4841869;29;20447;-87
2022/08/26 04:17:15;;;;;;;10.03;9.23;;;17.40;99.90;;;;;;4844164;29;21812;-87
2022/08/26 04:19:40;;;;;;;9.37;8.67;;;17.40;99.90;;;;;;4840808;29;20463;-86
2022/08/26 04:22:07;;;;;;;9.50;8.80;;;17.40;99.90;;;;;;4825325;29;20650;-86
2022/08/26 04:24:33;;;;;;;9.80;9.07;;;17.50;99.90;;;;;;4846477;29;20213;-86
2022/08/26 04:27:01;;;;;;;9.00;8.30;;;17.50;99.90;;;;;;4826349;29;20525;-88
2022/08/26 04:29:27;;;;;;;10.07;9.20;;;17.40;99.90;;;;;;4841245;29;20942;-85
2022/08/26 04:31:59;;;;;;;13.00;9.87;;;17.40;99.90;;;;;;4846288;29;20450;-85
2022/08/26 04:34:27;;;;;;;10.03;9.00;;;17.40;99.90;;;;;;4837843;29;20218;-86
2022/08/26 04:36:52;;;;;;;10.40;9.60;;;17.40;99.90;;;;;;4824928;29;20454;-86
2022/08/26 04:39:19;;;;;;;10.57;9.57;;;17.40;99.90;;;;;;4846694;29;20453;-85
2022/08/26 04:41:47;;;;;;;9.47;8.70;;;17.40;99.90;;;;;;4846001;29;20822;-85
2022/08/26 04:44:13;;;;;;;10.80;9.97;;;17.40;99.90;;;;;;4849642;29;20534;-85
2022/08/26 04:46:39;;;;;;;10.40;9.60;;;17.40;99.90;;;;;;4849315;29;20480;-85
2022/08/26 04:49:07;;;;;;;10.00;9.10;;;17.30;99.90;;;;;;4843117;29;21021;-85
2022/08/26 04:51:34;;;;;;;11.07;10.17;;;17.30;99.90;;;;;;4849056;29;20450;-85
2022/08/26 04:54:00;;;;;;;9.70;8.90;;;17.30;99.90;;;;;;4838782;29;20447;-85
2022/08/26 04:56:28;;;;;;;9.83;9.10;;;17.30;99.90;;;;;;4828887;29;20530;-85
2022/08/26 04:58:54;;;;;;;10.80;9.70;;;17.30;99.90;;;;;;4841853;29;20800;-85
2022/08/26 05:01:20;;;;;;;10.13;9.23;;;17.20;99.90;;;;;;4855162;29;20455;-86
2022/08/26 05:03:47;;;;;;;9.93;9.13;;;17.20;99.90;;;;;;4821869;29;20202;-86
2022/08/26 05:06:14;;;;;;;9.87;8.97;;;17.10;99.90;;;;;;4841309;29;20537;-85
2022/08/26 05:08:39;;;;;;;10.00;9.20;;;17.10;99.90;;;;;;4844936;29;20997;-85
2022/08/26 05:11:06;;;;;;;10.13;9.23;;;17.20;99.90;;;;;;4842499;29;20504;-85
2022/08/26 05:13:33;;;;;;;9.67;8.97;;;17.30;99.90;;;;;;4837400;29;20451;-85
2022/08/26 05:16:08;;;;;;;10.53;9.73;;;17.40;99.90;;;;;;4844776;29;20496;-85
2022/08/26 05:18:33;;;;;;;11.20;10.10;;;17.40;99.90;;;;;;4832065;29;20496;-85
2022/08/26 05:21:01;;;;;;;10.87;10.00;;;17.40;99.90;;;;;;4842343;29;21414;-86
2022/08/26 05:23:30;;;;;;;11.03;10.13;;;17.40;99.90;;;;;;4839445;29;20320;-85
2022/08/26 05:25:57;;;;;;;10.37;9.53;;;17.30;99.90;;;;;;4839634;29;20454;-86
2022/08/26 05:28:23;;;;;;;10.37;9.40;;;17.40;99.90;;;;;;4846205;29;20644;-86
2022/08/26 05:30:51;;;;;;;10.73;9.83;;;17.40;99.90;;;;;;4836278;29;20966;-86
2022/08/26 05:33:17;;;;;;;11.70;10.70;;;17.50;99.90;;;;;;4857542;29;20867;-85
2022/08/26 05:35:44;;;;;;;11.00;10.10;;;17.60;99.90;;;;;;4843092;29;20444;-86
2022/08/26 05:38:15;;;;;;;12.07;10.50;;;17.70;99.90;;;;;;4835102;29;20538;-85
2022/08/26 05:40:45;;;;;;;11.20;10.30;;;17.60;99.90;;;;;;4842920;29;20447;-85
2022/08/26 05:43:12;;;;;;;11.00;10.10;;;17.60;99.90;;;;;;4847972;29;20466;-86
2022/08/26 05:45:44;;;;;;;11.37;10.37;;;17.50;99.90;;;;;;4842786;29;20538;-86
2022/08/26 05:48:10;;;;;;;11.30;10.10;;;17.50;99.90;;;;;;4848495;29;20519;-85
2022/08/26 05:50:38;;;;;;;9.93;9.13;;;17.50;99.90;;;;;;4847667;29;20439;-86
2022/08/26 05:53:06;;;;;;;11.10;10.20;;;17.50;99.90;;;;;;4832066;29;20549;-85
2022/08/26 05:55:32;;;;;;;11.73;10.73;;;17.50;99.90;;;;;;4847471;29;20538;-85
2022/08/26 05:57:57;;;;;;;11.73;10.80;;;17.40;99.90;;;;;;4831639;29;20455;-86
2022/08/26 06:00:23;;;;;;;10.90;9.83;;;17.40;99.90;;;;;;4843568;29;20474;-85
2022/08/26 06:02:51;;;;;;;11.67;10.77;;;17.40;99.90;;;;;;4862482;29;20284;-85
2022/08/26 06:05:17;;;;;;;10.93;9.80;;;17.30;99.90;;;;;;4838181;29;20275;-86
2022/08/26 06:10:27;;;;;;;11.10;10.10;;;17.40;99.90;;;;;;4848572;29;20458;-85
2022/08/26 06:12:53;;;;;;;12.20;11.00;;;17.40;99.90;;;;;;4848716;29;20454;-85
2022/08/26 06:15:18;;;;;;;11.57;10.53;;;17.50;99.90;;;;;;4842138;29;20213;-86
2022/08/26 06:17:44;;;;;;;10.93;10.10;;;17.50;99.90;;;;;;4836548;29;20194;-86
2022/08/26 06:20:10;;;;;;;12.40;11.30;;;17.60;99.90;;;;;;4830305;29;20190;-85
2022/08/26 06:25:38;;;;;;;11.40;10.50;;;17.60;99.90;;;;;;4844210;29;20458;-84
2022/08/26 06:28:04;;;;;;;10.70;9.80;;;17.70;99.90;;;;;;4841537;29;20573;-84
2022/08/26 06:30:31;;;;;;;11.20;10.40;;;17.80;99.90;;;;;;4844993;29;20482;-85
2022/08/26 06:32:56;;;;;;;10.77;9.87;;;17.90;99.90;;;;;;4840453;29;20512;-84
2022/08/26 06:35:22;;;;;;;11.07;10.17;;;17.90;99.90;;;;;;4845789;29;20446;-84
2022/08/26 06:37:48;;;;;;;11.53;10.50;;;17.90;99.90;;;;;;4843524;29;20194;-85
2022/08/26 06:40:13;;;;;;;10.87;9.77;;;18.00;99.90;;;;;;4824217;29;20196;-84
2022/08/26 06:42:39;;;;;;;11.70;10.50;;;18.00;99.90;;;;;;4846101;29;20519;-85
2022/08/26 06:45:06;;;;;;;11.63;10.80;;;18.10;99.90;;;;;;4845445;29;20573;-85
2022/08/26 06:47:31;;;;;;;11.17;10.17;;;18.20;99.90;;;;;;4828188;29;20489;-84
2022/08/26 06:49:57;;;;;;;11.23;10.23;;;18.20;99.90;;;;;;4847450;29;20463;-85
2022/08/26 06:52:23;;;;;;;11.43;10.37;;;18.30;99.90;;;;;;4849608;29;20190;-85
2022/08/26 06:54:49;;;;;;;11.40;10.40;;;18.30;99.90;;;;;;4847373;29;20194;-86
2022/08/26 06:57:15;;;;;;;11.50;10.60;;;18.40;99.90;;;;;;4833574;29;21918;-84
2022/08/26 06:59:41;;;;;;;10.70;9.77;;;18.30;99.90;;;;;;4850849;29;20458;-84
2022/08/26 07:02:06;;;;;;;10.73;9.70;;;18.30;99.90;;;;;;4846910;29;20197;-85
2022/08/26 07:04:33;;;;;;;11.30;10.30;;;18.40;99.90;;;;;;4846106;29;20447;-84
2022/08/26 07:06:59;;;;;;;10.57;9.67;;;18.40;99.90;;;;;;4848290;29;20218;-85
2022/08/26 07:09:28;;;;;;;11.50;10.47;;;18.50;99.90;;;;;;4843020;29;20507;-85
2022/08/26 07:11:58;;;;;;;10.73;9.80;;;18.60;99.90;;;;;;4844258;29;20182;-85
2022/08/26 07:14:27;;;;;;;12.10;11.10;;;18.60;99.90;;;;;;4832052;29;20493;-85
2022/08/26 07:16:53;;;;;;;12.10;10.90;;;18.70;99.90;;;;;;4841000;29;20560;-85
2022/08/26 07:19:20;;;;;;;11.33;10.43;;;18.70;99.90;;;;;;4829288;29;20182;-85
2022/08/26 07:21:45;;;;;;;11.17;10.07;;;18.80;99.90;;;;;;4844520;29;20443;-85
2022/08/26 07:24:11;;;;;;;11.13;10.23;;;18.90;99.90;;;;;;4845593;29;20439;-85
2022/08/26 07:26:38;;;;;;;11.97;10.90;;;18.90;99.90;;;;;;4845323;29;20182;-86
2022/08/26 07:29:04;;;;;;;10.50;9.70;;;19.00;99.90;;;;;;4827433;29;20909;-85
2022/08/26 07:31:33;;;;;;;11.60;10.60;;;19.20;99.90;;;;;;4841719;29;20503;-86
2022/08/26 07:33:58;;;;;;;11.80;10.70;;;19.30;99.90;;;;;;4825571;29;20973;-86
2022/08/26 07:36:25;;;;;;;11.47;10.00;;;19.50;99.90;;;;;;4846131;29;20443;-85
2022/08/26 07:38:51;;;;;;;11.70;10.40;;;19.60;99.90;;;;;;4841194;29;20190;-86
2022/08/26 07:41:19;;;;;;;10.43;9.63;;;19.70;99.90;;;;;;4838284;29;20450;-86
2022/08/26 07:43:44;;;;;;;10.67;9.70;;;19.90;99.90;;;;;;4860297;29;20443;-86
2022/08/26 07:46:12;;;;;;;10.17;9.37;;;20.00;99.90;;;;;;4842733;29;21113;-86
2022/08/26 07:48:38;;;;;;;11.30;10.23;;;20.10;99.90;;;;;;4836746;29;20222;-86
2022/08/26 07:51:07;;;;;;;10.47;9.53;;;20.40;99.90;;;;;;4843317;29;20438;-86
2022/08/26 07:53:52;;;;;;;10.27;9.50;;;20.50;99.90;;;;;;4856654;24;20339;-86
2022/08/26 07:56:17;;;;;;;9.93;9.13;;;20.60;99.90;;;;;;4861979;29;20472;-86
2022/08/26 07:58:43;;;;;;;11.50;10.27;;;20.60;99.90;;;;;;4844241;29;20453;-86
2022/08/26 08:01:09;;;;;;;9.87;9.17;;;20.70;99.90;;;;;;4846114;29;20186;-86
2022/08/26 08:03:35;;;;;;;9.77;9.07;;;20.80;99.90;;;;;;4846452;29;20276;-85
2022/08/26 08:06:00;;;;;;;10.07;9.27;;;21.10;99.90;;;;;;4843466;29;20960;-85
2022/08/26 08:08:26;;;;;;;9.80;9.00;;;21.20;99.90;;;;;;4841498;29;20232;-86
2022/08/26 08:10:52;;;;;;;10.30;9.50;;;21.30;99.90;;;;;;4849325;29;20224;-86
2022/08/26 08:13:17;;;;;;;10.00;9.20;;;21.50;99.90;;;;;;4843605;29;20198;-85
2022/08/26 08:15:43;;;;;;;9.70;9.00;;;21.60;99.90;;;;;;4843425;29;20712;-85
2022/08/26 08:18:09;;;;;;;9.70;8.90;;;21.80;99.90;;;;;;4861199;29;20203;-86
2022/08/26 08:20:34;;;;;;;10.27;9.47;;;22.10;99.90;;;;;;4865390;29;20190;-86
2022/08/26 08:23:03;;;;;;;9.83;9.13;;;22.30;99.90;;;;;;4860955;29;20224;-86
2022/08/26 08:25:29;;;;;;;10.07;9.27;;;22.50;99.90;;;;;;4849190;29;20288;-86
2022/08/26 08:27:55;;;;;;;9.40;8.40;;;22.60;99.90;;;;;;4851388;29;20613;-86
2022/08/26 08:30:21;;;;;;;10.20;9.20;;;22.60;99.90;;;;;;4859812;29;20457;-86
2022/08/26 08:32:47;;;;;;;9.47;8.50;;;22.60;99.90;;;;;;4858870;29;20863;-86
2022/08/26 08:35:15;;;;;;;9.43;8.53;;;22.60;99.90;;;;;;4860440;29;20803;-86
2022/08/26 08:37:42;;;;;;;9.53;8.73;;;22.70;99.90;;;;;;4866563;29;20488;-86
2022/08/26 08:40:08;;;;;;;9.33;8.63;;;22.60;99.90;;;;;;4860766;29;20463;-86
2022/08/26 08:42:46;;;;;;;9.83;9.03;;;22.50;99.90;;;;;;4854538;29;20968;-86
2022/08/26 08:45:50;;;;;;;9.47;8.70;;;22.60;99.90;;;;;;4855085;29;20787;-85
2022/08/26 08:52:03;;;;;;;9.87;9.07;;;22.90;99.90;;;;;;4781273;29;20440;-91
2022/08/26 08:54:30;;;;;;;14.30;13.20;;;23.10;99.90;;;;;;4847709;29;20485;-89
2022/08/26 08:57:06;;;;;;;23.30;21.47;;;23.50;99.90;;;;;;4866424;29;20442;-89
2022/08/26 08:59:34;;;;;;;20.97;19.30;;;23.50;99.90;;;;;;4856053;29;20466;-91
2022/08/26 09:02:14;;;;;;;16.17;14.77;;;23.90;99.90;;;;;;4847208;29;20438;-90
2022/08/26 09:05:06;;;;;;;12.60;11.37;;;24.10;99.90;;;;;;4862984;29;20458;-91
2022/08/26 09:07:37;;;;;;;13.50;12.50;;;24.50;99.90;;;;;;4847133;29;20482;-90
2022/08/26 09:10:18;;;;;;;12.37;11.43;;;24.70;99.90;;;;;;4863699;29;21251;-90
2022/08/26 09:12:45;;;;;;;10.00;9.30;;;24.90;99.90;;;;;;4848710;29;20991;-90
2022/08/26 09:15:24;;;;;;;9.20;8.50;;;25.20;99.90;;;;;;4865767;29;20482;-90
2022/08/26 09:18:09;;;;;;;8.83;8.13;;;25.40;99.90;;;;;;4850245;29;20427;-90
2022/08/26 09:21:04;;;;;;;8.93;8.30;;;25.70;99.90;;;;;;4847073;29;20502;-90
2022/08/26 09:23:32;;;;;;;9.13;8.30;;;26.10;99.60;;;;;;4868902;29;20608;-90
2022/08/26 09:26:11;;;;;;;9.80;9.00;;;26.30;99.50;;;;;;4849861;29;20809;-90
2022/08/26 09:28:41;;;;;;;8.30;7.70;;;26.20;99.20;;;;;;4865843;29;20474;-91
2022/08/26 09:31:12;;;;;;;7.97;7.30;;;26.00;99.20;;;;;;4848726;29;20454;-90
2022/08/26 09:33:41;;;;;;;8.73;8.00;;;26.20;99.00;;;;;;4847949;29;20449;-88
2022/08/26 09:36:37;;;;;;;7.37;6.80;;;26.70;98.50;;;;;;4851995;29;20480;-89
2022/08/26 09:39:04;;;;;;;8.57;7.97;;;26.80;97.00;;;;;;4864411;29;20828;-89
2022/08/26 09:41:32;;;;;;;7.83;7.23;;;26.60;97.10;;;;;;4850312;29;20439;-89
2022/08/26 09:44:21;;;;;;;7.80;7.03;;;26.70;98.20;;;;;;4862708;29;20462;-89
2022/08/26 09:47:00;;;;;;;9.17;7.13;;;27.00;96.80;;;;;;4860689;29;20509;-89
2022/08/26 09:49:35;;;;;;;9.90;7.83;;;27.00;97.00;;;;;;4861916;29;20458;-90
2022/08/26 09:52:15;;;;;;;7.43;6.93;;;27.10;96.50;;;;;;4844422;29;20444;-92
2022/08/26 09:55:18;;;;;;;7.60;7.10;;;27.10;96.30;;;;;;4844793;29;20496;-90
2022/08/26 09:57:48;;;;;;;7.00;6.60;;;27.20;96.00;;;;;;4839705;29;20953;-90
2022/08/26 10:00:26;;;;;;;7.73;7.23;;;27.20;95.40;;;;;;4848856;29;20460;-89
2022/08/26 10:02:52;;;;;;;7.17;6.77;;;27.30;94.90;;;;;;4841926;29;21046;-90
2022/08/26 10:05:32;;;;;;;8.03;7.40;;;27.70;95.50;;;;;;4842618;29;20735;-91
2022/08/26 10:08:01;;;;;;;6.67;6.13;;;28.00;95.30;;;;;;4827421;29;20493;-91
2022/08/26 10:10:39;;;;;;;8.97;6.57;;;28.10;94.40;;;;;;4845978;29;20454;-92
2022/08/26 10:13:43;;;;;;;6.70;6.30;;;28.40;95.80;;;;;;4860172;29;24496;-91
2022/08/26 10:16:16;;;;;;;7.67;7.07;;;28.40;94.60;;;;;;4846435;29;20453;-92
2022/08/26 10:18:49;;;;;;;8.43;7.63;;;28.40;92.80;;;;;;4863203;29;20477;-90
2022/08/26 10:21:32;;;;;;;7.60;6.87;;;28.60;93.80;;;;;;4843915;29;20442;-90
2022/08/26 10:24:02;;;;;;;7.73;7.03;;;28.80;93.00;;;;;;4859656;29;20979;-91
2022/08/26 10:26:52;;;;;;;9.13;8.10;;;29.10;94.70;;;;;;4848049;29;20483;-88
2022/08/26 10:29:27;;;;;;;7.90;7.10;;;29.20;94.30;;;;;;4867707;29;20453;-91
2022/08/26 10:32:00;;;;;;;7.30;6.57;;;29.10;92.50;;;;;;4864635;29;20496;-89
2022/08/26 10:34:30;;;;;;;7.87;6.87;;;29.20;92.80;;;;;;4842640;29;20961;-89
2022/08/26 10:37:20;;;;;;;7.83;7.13;;;29.20;91.70;;;;;;4866449;29;20516;-90
2022/08/26 10:39:52;;;;;;;7.17;6.57;;;29.10;93.40;;;;;;4849048;29;20493;-89
2022/08/26 10:42:30;;;;;;;8.33;7.53;;;29.50;93.30;;;;;;4864667;29;20506;-90
2022/08/26 10:45:05;;;;;;;6.83;6.40;;;29.50;93.70;;;;;;4847509;29;20454;-88
2022/08/26 10:47:42;;;;;;;7.90;7.10;;;30.00;91.80;;;;;;4848104;29;20550;-90
2022/08/26 10:50:08;;;;;;;7.87;7.13;;;30.40;89.70;;;;;;4866127;29;20441;-89
2022/08/26 10:53:01;;;;;;;11.60;7.23;;;30.70;87.20;;;;;;4866779;29;20442;-89
2022/08/26 10:55:39;;;;;;;9.90;7.23;;;30.50;86.10;;;;;;4849789;29;20458;-86
2022/08/26 10:58:15;;;;;;;8.40;7.50;;;29.90;88.20;;;;;;4865032;29;20533;-84
2022/08/26 11:04:22;;;;;;;10.27;6.87;;;30.00;88.00;;;;;;4870675;29;20438;-87
2022/08/26 11:07:08;;;;;;;7.23;6.53;;;30.50;90.00;;;;;;4843701;29;20545;-87
2022/08/26 11:09:45;;;;;;;8.20;6.80;;;31.20;85.70;;;;;;4847665;29;20971;-85
2022/08/26 11:12:46;;;;;;;7.10;6.40;;;30.90;82.40;;;;;;4869252;29;20502;-84
2022/08/26 11:15:18;;;;;;;8.97;6.93;;;30.70;83.90;;;;;;4832467;29;20451;-85
2022/08/26 11:17:44;;;;;;;9.13;6.60;;;30.60;87.70;;;;;;4852392;29;20702;-85
2022/08/26 11:20:37;;;;;;;8.07;7.40;;;30.70;84.10;;;;;;4861995;29;20957;-85
2022/08/26 11:23:11;;;;;;;8.97;7.23;;;30.50;81.70;;;;;;4867207;29;20208;-85
2022/08/26 11:26:08;;;;;;;8.90;6.80;;;30.60;83.80;;;;;;4846794;29;21164;-85
2022/08/26 11:28:35;;;;;;;7.87;7.13;;;30.50;81.60;;;;;;4854431;29;20481;-84
2022/08/26 11:31:02;;;;;;;7.90;6.73;;;30.40;82.00;;;;;;4853023;29;20425;-85
2022/08/26 11:33:42;;;;;;;7.60;6.87;;;30.40;79.90;;;;;;4864729;29;20913;-85
2022/08/26 11:36:09;;;;;;;7.53;6.93;;;30.60;80.00;;;;;;4868923;29;20460;-85
2022/08/26 11:38:41;;;;;;;8.57;7.23;;;30.70;80.50;;;;;;4867239;29;20480;-85
2022/08/26 11:41:19;;;;;;;8.60;7.30;;;30.50;80.80;;;;;;4866244;29;20529;-85
2022/08/26 11:43:48;;;;;;;8.37;7.20;;;30.70;86.90;;;;;;4866373;29;20429;-85
2022/08/26 11:46:23;;;;;;;9.50;6.90;;;31.00;82.00;;;;;;4857930;29;20449;-86
2022/08/26 11:49:00;;;;;;;9.50;7.30;;;30.70;79.90;;;;;;4863708;29;20525;-85
2022/08/26 11:51:25;;;;;;;8.30;7.17;;;30.50;80.50;;;;;;4870340;29;20484;-85
2022/08/26 11:54:08;;;;;;;7.33;6.70;;;30.70;83.80;;;;;;4867124;29;20857;-85
2022/08/26 11:56:35;;;;;;;9.30;7.13;;;31.30;79.10;;;;;;4869487;29;20186;-85
2022/08/26 11:59:06;;;;;;;7.47;6.60;;;31.70;78.00;;;;;;4867566;29;20549;-83
2022/08/26 12:01:35;;;;;;;7.30;6.80;;;31.20;78.60;;;;;;4859096;29;20448;-84
2022/08/26 12:04:04;;;;;;;7.93;6.90;;;31.00;80.00;;;;;;4870410;29;20557;-85
2022/08/26 12:06:49;;;;;;;9.47;7.00;;;31.60;78.90;;;;;;4853016;29;20427;-85
2022/08/26 12:09:35;;;;;;;8.73;7.00;;;32.00;84.00;;;;;;4862633;29;20457;-90
2022/08/26 12:12:21;;;;;;;8.47;7.00;;;31.80;78.60;;;;;;4864209;29;20450;-90
2022/08/26 12:15:05;;;;;;;10.20;7.30;;;31.40;77.10;;;;;;4864450;29;20460;-89
2022/08/26 12:17:31;;;;;;;8.93;7.83;;;30.60;82.00;;;;;;4871546;29;20448;-89
2022/08/26 12:20:05;;;;;;;9.10;6.63;;;29.80;83.30;;;;;;4868013;29;20957;-90
2022/08/26 12:22:34;;;;;;;9.20;7.90;;;29.40;85.50;;;;;;4867426;29;20186;-90
2022/08/26 12:25:36;;;;;;;8.03;7.27;;;28.90;86.80;;;;;;4873545;29;20466;-96
2022/08/26 12:43:44;;;;;;;7.53;6.90;;;29.40;91.00;;;;;;4853992;29;20482;-96
2022/08/26 12:46:27;;;;;;;9.57;6.70;;;29.90;89.50;;;;;;4838414;29;20459;-95
2022/08/26 12:48:53;;;;;;;10.50;7.30;;;30.10;89.50;;;;;;4837234;29;20489;-94
2022/08/26 12:51:25;;;;;;;7.60;6.93;;;30.60;86.60;;;;;;4843104;29;20511;-95
2022/08/26 12:53:51;;;;;;;8.03;7.23;;;30.80;86.20;;;;;;4834005;29;20454;-95
2022/08/26 12:56:40;;;;;;;9.00;7.70;;;30.70;84.50;;;;;;4832983;29;20461;-95
2022/08/26 12:59:23;;;;;;;9.00;6.83;;;30.90;83.50;;;;;;4834484;29;20450;-94
2022/08/26 13:01:50;;;;;;;9.53;6.70;;;31.30;81.30;;;;;;4833486;29;20511;-93
2022/08/26 13:04:36;;;;;;;8.80;6.63;;;31.50;81.10;;;;;;4830720;29;20479;-94
2022/08/26 13:07:15;;;;;;;10.47;7.03;;;31.30;79.70;;;;;;4835681;29;21169;-94
2022/08/26 13:09:40;;;;;;;7.87;7.17;;;31.30;80.40;;;;;;4846563;29;20458;-93
2022/08/26 13:12:06;;;;;;;7.93;7.23;;;31.40;80.80;;;;;;4835657;29;20822;-92
2022/08/26 13:14:31;;;;;;;7.80;7.00;;;31.50;79.30;;;;;;4863559;29;20209;-93
2022/08/26 13:16:57;;;;;;;7.73;6.57;;;31.70;82.30;;;;;;4840061;29;20190;-92
2022/08/26 13:19:24;;;;;;;7.07;6.50;;;31.80;78.90;;;;;;4869096;29;20712;-93
2022/08/26 13:21:58;;;;;;;7.23;6.53;;;32.00;77.70;;;;;;4837307;29;20280;-92
2022/08/26 13:24:37;;;;;;;7.57;6.87;;;32.10;75.70;;;;;;4865103;29;20469;-92